sensor_id;sensor_type;location;lat;lon;timestamp;P1;durP1;ratioP1;P2;durP2;ratioP2
8536;SDS011;4306;50.210;10.628;2024-01-30T00:00:27;10.37;;;5.53;;
8536;SDS011;4306;50.210;10.628;2024-01-30T00:02:54;9.87;;;5.43;;
8536;SDS011;4306;50.210;10.628;2024-01-30T00:05:21;14.47;;;7.50;;
8536;SDS011;4306;50.210;10.628;2024-01-30T00:07:49;20.00;;;7.87;;
8536;SDS011;4306;50.210;10.628;2024-01-30T00:10:17;11.07;;;7.13;;
8536;SDS011;4306;50.210;10.628;2024-01-30T00:12:44;9.93;;;5.53;;
8536;SDS011;4306;50.210;10.628;2024-01-30T00:15:11;10.30;;;5.87;;
8536;SDS011;4306;50.210;10.628;2024-01-30T00:17:38;10.27;;;5.33;;
8536;SDS011;4306;50.210;10.628;2024-01-30T00:20:05;9.10;;;5.00;;
8536;SDS011;4306;50.210;10.628;2024-01-30T00:22:34;11.17;;;5.33;;
8536;SDS011;4306;50.210;10.628;2024-01-30T00:25:02;9.20;;;4.93;;
8536;SDS011;4306;50.210;10.628;2024-01-30T00:27:30;9.67;;;5.43;;
8536;SDS011;4306;50.210;10.628;2024-01-30T00:29:57;9.50;;;5.53;;
8536;SDS011;4306;50.210;10.628;2024-01-30T00:32:24;7.80;;;4.77;;
8536;SDS011;4306;50.210;10.628;2024-01-30T00:34:51;7.63;;;4.73;;
8536;SDS011;4306;50.210;10.628;2024-01-30T00:37:18;8.23;;;5.40;;
8536;SDS011;4306;50.210;10.628;2024-01-30T00:39:45;10.30;;;5.37;;
8536;SDS011;4306;50.210;10.628;2024-01-30T00:42:13;9.80;;;5.23;;
8536;SDS011;4306;50.210;10.628;2024-01-30T00:44:40;8.83;;;5.10;;
8536;SDS011;4306;50.210;10.628;2024-01-30T00:47:07;9.00;;;5.80;;
8536;SDS011;4306;50.210;10.628;2024-01-30T00:49:34;10.03;;;5.27;;
8536;SDS011;4306;50.210;10.628;2024-01-30T00:52:02;8.10;;;4.97;;
8536;SDS011;4306;50.210;10.628;2024-01-30T00:54:30;7.80;;;5.20;;
8536;SDS011;4306;50.210;10.628;2024-01-30T00:56:57;10.20;;;5.33;;
8536;SDS011;4306;50.210;10.628;2024-01-30T00:59:25;10.53;;;5.37;;
8536;SDS011;4306;50.210;10.628;2024-01-30T01:01:52;10.17;;;5.00;;
8536;SDS011;4306;50.210;10.628;2024-01-30T01:04:19;11.83;;;5.93;;
8536;SDS011;4306;50.210;10.628;2024-01-30T01:06:47;9.27;;;4.90;;
8536;SDS011;4306;50.210;10.628;2024-01-30T01:09:14;9.03;;;5.20;;
8536;SDS011;4306;50.210;10.628;2024-01-30T01:11:41;9.53;;;4.70;;
8536;SDS011;4306;50.210;10.628;2024-01-30T01:14:08;8.87;;;4.87;;
8536;SDS011;4306;50.210;10.628;2024-01-30T01:16:36;9.60;;;4.83;;
8536;SDS011;4306;50.210;10.628;2024-01-30T01:19:03;9.30;;;5.73;;
8536;SDS011;4306;50.210;10.628;2024-01-30T01:21:30;10.63;;;5.57;;
8536;SDS011;4306;50.210;10.628;2024-01-30T01:23:57;9.57;;;5.10;;
8536;SDS011;4306;50.210;10.628;2024-01-30T01:26:24;12.70;;;6.17;;
8536;SDS011;4306;50.210;10.628;2024-01-30T01:28:51;8.53;;;5.30;;
8536;SDS011;4306;50.210;10.628;2024-01-30T01:31:18;9.50;;;5.50;;
8536;SDS011;4306;50.210;10.628;2024-01-30T01:33:51;8.77;;;5.63;;
8536;SDS011;4306;50.210;10.628;2024-01-30T01:36:18;8.70;;;5.40;;
8536;SDS011;4306;50.210;10.628;2024-01-30T01:38:45;8.07;;;4.90;;
8536;SDS011;4306;50.210;10.628;2024-01-30T01:41:12;10.53;;;5.50;;
8536;SDS011;4306;50.210;10.628;2024-01-30T01:43:39;7.70;;;4.90;;
8536;SDS011;4306;50.210;10.628;2024-01-30T01:46:06;8.80;;;5.20;;
8536;SDS011;4306;50.210;10.628;2024-01-30T01:48:34;10.53;;;6.03;;
8536;SDS011;4306;50.210;10.628;2024-01-30T01:51:03;10.77;;;6.50;;
8536;SDS011;4306;50.210;10.628;2024-01-30T01:53:31;11.50;;;6.13;;
8536;SDS011;4306;50.210;10.628;2024-01-30T01:55:58;8.93;;;5.70;;
8536;SDS011;4306;50.210;10.628;2024-01-30T01:58:25;9.17;;;6.10;;
8536;SDS011;4306;50.210;10.628;2024-01-30T02:00:55;8.73;;;5.83;;
8536;SDS011;4306;50.210;10.628;2024-01-30T02:03:23;9.23;;;5.73;;
8536;SDS011;4306;50.210;10.628;2024-01-30T02:05:51;10.57;;;5.90;;
8536;SDS011;4306;50.210;10.628;2024-01-30T02:08:19;15.03;;;7.90;;
8536;SDS011;4306;50.210;10.628;2024-01-30T02:10:46;11.30;;;6.40;;
8536;SDS011;4306;50.210;10.628;2024-01-30T02:13:14;11.10;;;7.10;;
8536;SDS011;4306;50.210;10.628;2024-01-30T02:15:41;13.53;;;6.47;;
8536;SDS011;4306;50.210;10.628;2024-01-30T02:18:08;8.23;;;5.63;;
8536;SDS011;4306;50.210;10.628;2024-01-30T02:20:35;9.00;;;5.43;;
8536;SDS011;4306;50.210;10.628;2024-01-30T02:23:05;9.50;;;5.03;;
8536;SDS011;4306;50.210;10.628;2024-01-30T02:25:38;9.43;;;5.77;;
8536;SDS011;4306;50.210;10.628;2024-01-30T02:28:09;9.70;;;5.57;;
8536;SDS011;4306;50.210;10.628;2024-01-30T02:30:36;7.33;;;4.90;;
8536;SDS011;4306;50.210;10.628;2024-01-30T02:33:04;9.27;;;5.23;;
8536;SDS011;4306;50.210;10.628;2024-01-30T02:35:31;8.33;;;5.17;;
8536;SDS011;4306;50.210;10.628;2024-01-30T02:37:58;9.90;;;5.27;;
8536;SDS011;4306;50.210;10.628;2024-01-30T02:40:27;12.20;;;5.93;;
8536;SDS011;4306;50.210;10.628;2024-01-30T02:42:54;9.60;;;5.53;;
8536;SDS011;4306;50.210;10.628;2024-01-30T02:45:22;9.33;;;5.23;;
8536;SDS011;4306;50.210;10.628;2024-01-30T02:47:49;9.60;;;6.07;;
8536;SDS011;4306;50.210;10.628;2024-01-30T02:50:16;9.30;;;5.77;;
8536;SDS011;4306;50.210;10.628;2024-01-30T02:52:43;9.37;;;5.33;;
8536;SDS011;4306;50.210;10.628;2024-01-30T02:55:10;10.20;;;6.33;;
8536;SDS011;4306;50.210;10.628;2024-01-30T02:57:39;10.90;;;5.50;;
8536;SDS011;4306;50.210;10.628;2024-01-30T03:00:06;11.70;;;5.60;;
8536;SDS011;4306;50.210;10.628;2024-01-30T03:02:35;9.80;;;5.27;;
8536;SDS011;4306;50.210;10.628;2024-01-30T03:05:03;10.13;;;5.33;;
8536;SDS011;4306;50.210;10.628;2024-01-30T03:07:32;8.87;;;4.90;;
8536;SDS011;4306;50.210;10.628;2024-01-30T03:10:00;9.70;;;5.50;;
8536;SDS011;4306;50.210;10.628;2024-01-30T03:12:27;7.27;;;4.80;;
8536;SDS011;4306;50.210;10.628;2024-01-30T03:14:55;7.77;;;4.77;;
8536;SDS011;4306;50.210;10.628;2024-01-30T03:17:22;8.57;;;5.30;;
8536;SDS011;4306;50.210;10.628;2024-01-30T03:19:50;9.43;;;5.57;;
8536;SDS011;4306;50.210;10.628;2024-01-30T03:22:17;10.57;;;5.30;;
8536;SDS011;4306;50.210;10.628;2024-01-30T03:24:44;12.30;;;5.60;;
8536;SDS011;4306;50.210;10.628;2024-01-30T03:27:11;9.10;;;4.57;;
8536;SDS011;4306;50.210;10.628;2024-01-30T03:29:38;9.57;;;5.20;;
8536;SDS011;4306;50.210;10.628;2024-01-30T03:32:06;7.67;;;5.33;;
8536;SDS011;4306;50.210;10.628;2024-01-30T03:34:33;9.97;;;4.93;;
8536;SDS011;4306;50.210;10.628;2024-01-30T03:37:00;8.00;;;5.40;;
8536;SDS011;4306;50.210;10.628;2024-01-30T03:39:27;9.00;;;4.73;;
8536;SDS011;4306;50.210;10.628;2024-01-30T03:41:54;11.13;;;5.60;;
8536;SDS011;4306;50.210;10.628;2024-01-30T03:44:21;10.70;;;5.00;;
8536;SDS011;4306;50.210;10.628;2024-01-30T03:46:48;9.13;;;5.37;;
8536;SDS011;4306;50.210;10.628;2024-01-30T03:49:17;8.70;;;5.27;;
8536;SDS011;4306;50.210;10.628;2024-01-30T03:51:44;9.53;;;5.63;;
8536;SDS011;4306;50.210;10.628;2024-01-30T03:54:12;9.93;;;5.77;;
8536;SDS011;4306;50.210;10.628;2024-01-30T03:56:39;9.27;;;5.60;;
8536;SDS011;4306;50.210;10.628;2024-01-30T03:59:06;8.27;;;5.00;;
8536;SDS011;4306;50.210;10.628;2024-01-30T04:01:33;8.50;;;5.00;;
8536;SDS011;4306;50.210;10.628;2024-01-30T04:04:00;9.87;;;5.17;;
8536;SDS011;4306;50.210;10.628;2024-01-30T04:06:29;8.90;;;5.37;;
8536;SDS011;4306;50.210;10.628;2024-01-30T04:08:56;9.27;;;5.60;;
8536;SDS011;4306;50.210;10.628;2024-01-30T04:11:23;8.80;;;5.43;;
8536;SDS011;4306;50.210;10.628;2024-01-30T04:13:50;8.40;;;5.03;;
8536;SDS011;4306;50.210;10.628;2024-01-30T04:16:20;8.63;;;5.53;;
8536;SDS011;4306;50.210;10.628;2024-01-30T04:18:48;8.57;;;5.33;;
8536;SDS011;4306;50.210;10.628;2024-01-30T04:21:15;8.50;;;4.83;;
8536;SDS011;4306;50.210;10.628;2024-01-30T04:23:43;9.83;;;5.13;;
8536;SDS011;4306;50.210;10.628;2024-01-30T04:26:10;9.70;;;4.73;;
8536;SDS011;4306;50.210;10.628;2024-01-30T04:28:37;9.03;;;4.80;;
8536;SDS011;4306;50.210;10.628;2024-01-30T04:31:04;7.87;;;4.87;;
8536;SDS011;4306;50.210;10.628;2024-01-30T04:33:31;10.17;;;5.10;;
8536;SDS011;4306;50.210;10.628;2024-01-30T04:35:59;8.10;;;4.80;;
8536;SDS011;4306;50.210;10.628;2024-01-30T04:38:26;9.20;;;4.80;;
8536;SDS011;4306;50.210;10.628;2024-01-30T04:40:54;9.13;;;5.23;;
8536;SDS011;4306;50.210;10.628;2024-01-30T04:43:21;11.17;;;5.30;;
8536;SDS011;4306;50.210;10.628;2024-01-30T04:45:49;10.17;;;5.47;;
8536;SDS011;4306;50.210;10.628;2024-01-30T04:48:16;10.13;;;5.70;;
8536;SDS011;4306;50.210;10.628;2024-01-30T04:50:43;8.20;;;5.30;;
8536;SDS011;4306;50.210;10.628;2024-01-30T04:53:10;9.00;;;5.07;;
8536;SDS011;4306;50.210;10.628;2024-01-30T04:55:37;9.83;;;5.70;;
8536;SDS011;4306;50.210;10.628;2024-01-30T04:58:05;8.87;;;4.90;;
8536;SDS011;4306;50.210;10.628;2024-01-30T05:00:32;10.67;;;4.93;;
8536;SDS011;4306;50.210;10.628;2024-01-30T05:03:00;10.10;;;5.53;;
8536;SDS011;4306;50.210;10.628;2024-01-30T05:05:27;9.20;;;5.27;;
8536;SDS011;4306;50.210;10.628;2024-01-30T05:07:54;9.00;;;5.40;;
8536;SDS011;4306;50.210;10.628;2024-01-30T05:10:21;10.87;;;5.07;;
8536;SDS011;4306;50.210;10.628;2024-01-30T05:12:48;8.90;;;5.27;;
8536;SDS011;4306;50.210;10.628;2024-01-30T05:15:16;10.63;;;4.80;;
8536;SDS011;4306;50.210;10.628;2024-01-30T05:17:43;9.63;;;4.83;;
8536;SDS011;4306;50.210;10.628;2024-01-30T05:20:11;10.73;;;5.47;;
8536;SDS011;4306;50.210;10.628;2024-01-30T05:22:38;10.80;;;5.73;;
8536;SDS011;4306;50.210;10.628;2024-01-30T05:25:10;11.97;;;6.93;;
8536;SDS011;4306;50.210;10.628;2024-01-30T05:27:37;9.47;;;6.00;;
8536;SDS011;4306;50.210;10.628;2024-01-30T05:30:05;10.00;;;6.10;;
8536;SDS011;4306;50.210;10.628;2024-01-30T05:32:35;15.83;;;7.73;;
8536;SDS011;4306;50.210;10.628;2024-01-30T05:35:02;8.87;;;6.00;;
8536;SDS011;4306;50.210;10.628;2024-01-30T05:37:30;11.57;;;6.80;;
8536;SDS011;4306;50.210;10.628;2024-01-30T05:39:57;12.20;;;5.93;;
8536;SDS011;4306;50.210;10.628;2024-01-30T05:42:24;8.13;;;5.67;;
8536;SDS011;4306;50.210;10.628;2024-01-30T05:44:52;11.57;;;7.70;;
8536;SDS011;4306;50.210;10.628;2024-01-30T05:47:20;10.60;;;5.83;;
8536;SDS011;4306;50.210;10.628;2024-01-30T05:49:48;8.83;;;5.33;;
8536;SDS011;4306;50.210;10.628;2024-01-30T05:52:15;11.37;;;5.97;;
8536;SDS011;4306;50.210;10.628;2024-01-30T05:54:43;9.50;;;6.07;;
8536;SDS011;4306;50.210;10.628;2024-01-30T05:57:10;7.93;;;5.47;;
8536;SDS011;4306;50.210;10.628;2024-01-30T05:59:38;10.53;;;5.40;;
8536;SDS011;4306;50.210;10.628;2024-01-30T06:02:04;10.53;;;6.13;;
8536;SDS011;4306;50.210;10.628;2024-01-30T06:04:32;9.83;;;6.13;;
8536;SDS011;4306;50.210;10.628;2024-01-30T06:07:00;12.70;;;6.23;;
8536;SDS011;4306;50.210;10.628;2024-01-30T06:09:27;10.23;;;6.27;;
8536;SDS011;4306;50.210;10.628;2024-01-30T06:11:55;9.47;;;6.17;;
8536;SDS011;4306;50.210;10.628;2024-01-30T06:14:22;11.17;;;6.70;;
8536;SDS011;4306;50.210;10.628;2024-01-30T06:16:49;9.70;;;5.70;;
8536;SDS011;4306;50.210;10.628;2024-01-30T06:19:16;11.57;;;5.87;;
8536;SDS011;4306;50.210;10.628;2024-01-30T06:21:43;9.53;;;6.47;;
8536;SDS011;4306;50.210;10.628;2024-01-30T06:24:12;16.67;;;10.00;;
8536;SDS011;4306;50.210;10.628;2024-01-30T06:29:29;12.43;;;9.53;;
8536;SDS011;4306;50.210;10.628;2024-01-30T06:31:56;9.33;;;5.90;;
8536;SDS011;4306;50.210;10.628;2024-01-30T06:34:23;9.57;;;6.90;;
8536;SDS011;4306;50.210;10.628;2024-01-30T06:36:51;12.00;;;6.47;;
8536;SDS011;4306;50.210;10.628;2024-01-30T06:39:19;9.17;;;6.30;;
8536;SDS011;4306;50.210;10.628;2024-01-30T06:41:46;12.17;;;5.43;;
8536;SDS011;4306;50.210;10.628;2024-01-30T06:44:13;10.17;;;5.57;;
8536;SDS011;4306;50.210;10.628;2024-01-30T06:46:41;12.70;;;6.13;;
8536;SDS011;4306;50.210;10.628;2024-01-30T06:49:08;9.00;;;5.60;;
8536;SDS011;4306;50.210;10.628;2024-01-30T06:51:34;9.80;;;5.80;;
8536;SDS011;4306;50.210;10.628;2024-01-30T06:54:01;18.07;;;9.60;;
8536;SDS011;4306;50.210;10.628;2024-01-30T06:56:30;57.87;;;22.23;;
8536;SDS011;4306;50.210;10.628;2024-01-30T06:58:57;59.10;;;23.43;;
8536;SDS011;4306;50.210;10.628;2024-01-30T07:01:27;32.20;;;14.83;;
8536;SDS011;4306;50.210;10.628;2024-01-30T07:03:55;22.87;;;10.17;;
8536;SDS011;4306;50.210;10.628;2024-01-30T07:06:22;13.80;;;7.30;;
8536;SDS011;4306;50.210;10.628;2024-01-30T07:08:49;30.13;;;11.77;;
8536;SDS011;4306;50.210;10.628;2024-01-30T07:11:18;24.43;;;11.90;;
8536;SDS011;4306;50.210;10.628;2024-01-30T07:13:48;12.97;;;6.70;;
8536;SDS011;4306;50.210;10.628;2024-01-30T07:16:16;20.30;;;9.63;;
8536;SDS011;4306;50.210;10.628;2024-01-30T07:18:43;24.77;;;12.40;;
8536;SDS011;4306;50.210;10.628;2024-01-30T07:21:11;12.80;;;6.20;;
8536;SDS011;4306;50.210;10.628;2024-01-30T07:23:38;11.60;;;6.67;;
8536;SDS011;4306;50.210;10.628;2024-01-30T07:26:06;11.97;;;6.87;;
8536;SDS011;4306;50.210;10.628;2024-01-30T07:28:33;11.93;;;5.50;;
8536;SDS011;4306;50.210;10.628;2024-01-30T07:31:02;8.77;;;5.57;;
8536;SDS011;4306;50.210;10.628;2024-01-30T07:33:30;10.03;;;5.43;;
8536;SDS011;4306;50.210;10.628;2024-01-30T07:35:57;12.00;;;6.20;;
8536;SDS011;4306;50.210;10.628;2024-01-30T07:38:24;8.67;;;5.87;;
8536;SDS011;4306;50.210;10.628;2024-01-30T07:40:51;9.13;;;6.07;;
8536;SDS011;4306;50.210;10.628;2024-01-30T07:43:18;9.60;;;5.37;;
8536;SDS011;4306;50.210;10.628;2024-01-30T07:45:46;11.13;;;5.67;;
8536;SDS011;4306;50.210;10.628;2024-01-30T07:48:14;10.13;;;4.97;;
8536;SDS011;4306;50.210;10.628;2024-01-30T07:50:41;9.53;;;5.97;;
8536;SDS011;4306;50.210;10.628;2024-01-30T07:53:08;10.40;;;6.00;;
8536;SDS011;4306;50.210;10.628;2024-01-30T07:55:35;15.73;;;10.13;;
8536;SDS011;4306;50.210;10.628;2024-01-30T07:58:02;16.60;;;10.50;;
8536;SDS011;4306;50.210;10.628;2024-01-30T08:00:30;11.57;;;7.53;;
8536;SDS011;4306;50.210;10.628;2024-01-30T08:02:57;24.80;;;13.40;;
8536;SDS011;4306;50.210;10.628;2024-01-30T08:05:25;18.43;;;10.70;;
8536;SDS011;4306;50.210;10.628;2024-01-30T08:07:52;19.10;;;12.20;;
8536;SDS011;4306;50.210;10.628;2024-01-30T08:10:20;21.63;;;12.23;;
8536;SDS011;4306;50.210;10.628;2024-01-30T08:12:47;17.90;;;10.90;;
8536;SDS011;4306;50.210;10.628;2024-01-30T08:15:14;65.27;;;23.00;;
8536;SDS011;4306;50.210;10.628;2024-01-30T08:17:41;46.80;;;19.90;;
8536;SDS011;4306;50.210;10.628;2024-01-30T08:20:10;42.33;;;18.37;;
8536;SDS011;4306;50.210;10.628;2024-01-30T08:22:40;36.40;;;17.17;;
8536;SDS011;4306;50.210;10.628;2024-01-30T08:25:10;46.87;;;22.23;;
8536;SDS011;4306;50.210;10.628;2024-01-30T08:27:37;23.10;;;11.43;;
8536;SDS011;4306;50.210;10.628;2024-01-30T08:30:05;14.80;;;7.97;;
8536;SDS011;4306;50.210;10.628;2024-01-30T08:32:33;16.03;;;8.73;;
8536;SDS011;4306;50.210;10.628;2024-01-30T08:35:01;14.20;;;7.20;;
8536;SDS011;4306;50.210;10.628;2024-01-30T08:37:28;15.83;;;10.27;;
8536;SDS011;4306;50.210;10.628;2024-01-30T08:39:57;15.43;;;8.37;;
8536;SDS011;4306;50.210;10.628;2024-01-30T08:42:24;15.27;;;8.10;;
8536;SDS011;4306;50.210;10.628;2024-01-30T08:44:51;15.20;;;9.93;;
8536;SDS011;4306;50.210;10.628;2024-01-30T08:47:19;14.73;;;10.13;;
8536;SDS011;4306;50.210;10.628;2024-01-30T08:49:46;16.63;;;10.90;;
8536;SDS011;4306;50.210;10.628;2024-01-30T08:52:13;15.37;;;9.93;;
8536;SDS011;4306;50.210;10.628;2024-01-30T08:54:40;15.07;;;10.57;;
8536;SDS011;4306;50.210;10.628;2024-01-30T08:57:08;13.53;;;9.63;;
8536;SDS011;4306;50.210;10.628;2024-01-30T08:59:35;14.20;;;8.90;;
8536;SDS011;4306;50.210;10.628;2024-01-30T09:02:02;13.17;;;8.73;;
8536;SDS011;4306;50.210;10.628;2024-01-30T09:04:30;14.00;;;7.63;;
8536;SDS011;4306;50.210;10.628;2024-01-30T09:06:57;11.83;;;8.13;;
8536;SDS011;4306;50.210;10.628;2024-01-30T09:09:25;17.53;;;11.03;;
8536;SDS011;4306;50.210;10.628;2024-01-30T09:12:36;15.60;;;9.17;;
8536;SDS011;4306;50.210;10.628;2024-01-30T09:15:03;13.97;;;9.33;;
8536;SDS011;4306;50.210;10.628;2024-01-30T09:17:31;14.13;;;8.47;;
8536;SDS011;4306;50.210;10.628;2024-01-30T09:19:58;9.80;;;7.60;;
8536;SDS011;4306;50.210;10.628;2024-01-30T09:22:25;11.63;;;7.97;;
8536;SDS011;4306;50.210;10.628;2024-01-30T09:24:52;11.60;;;7.50;;
8536;SDS011;4306;50.210;10.628;2024-01-30T09:27:19;12.77;;;7.67;;
8536;SDS011;4306;50.210;10.628;2024-01-30T09:29:48;12.53;;;7.60;;
8536;SDS011;4306;50.210;10.628;2024-01-30T09:32:15;12.93;;;7.97;;
8536;SDS011;4306;50.210;10.628;2024-01-30T09:34:43;15.77;;;9.52;;
8536;SDS011;4306;50.210;10.628;2024-01-30T09:37:10;12.70;;;9.03;;
8536;SDS011;4306;50.210;10.628;2024-01-30T09:39:40;12.63;;;8.73;;
8536;SDS011;4306;50.210;10.628;2024-01-30T09:42:09;12.70;;;7.57;;
8536;SDS011;4306;50.210;10.628;2024-01-30T09:44:46;11.97;;;8.50;;
8536;SDS011;4306;50.210;10.628;2024-01-30T09:47:17;13.27;;;8.53;;
8536;SDS011;4306;50.210;10.628;2024-01-30T09:49:44;17.57;;;9.67;;
8536;SDS011;4306;50.210;10.628;2024-01-30T09:52:12;13.37;;;8.63;;
8536;SDS011;4306;50.210;10.628;2024-01-30T09:54:39;17.80;;;9.50;;
8536;SDS011;4306;50.210;10.628;2024-01-30T09:57:07;15.53;;;9.70;;
8536;SDS011;4306;50.210;10.628;2024-01-30T09:59:34;16.50;;;9.83;;
8536;SDS011;4306;50.210;10.628;2024-01-30T10:02:03;16.50;;;10.13;;
8536;SDS011;4306;50.210;10.628;2024-01-30T10:04:30;18.45;;;10.40;;
8536;SDS011;4306;50.210;10.628;2024-01-30T10:06:57;19.98;;;9.98;;
8536;SDS011;4306;50.210;10.628;2024-01-30T10:09:48;13.07;;;8.70;;
8536;SDS011;4306;50.210;10.628;2024-01-30T10:12:16;14.20;;;9.40;;
8536;SDS011;4306;50.210;10.628;2024-01-30T10:14:43;16.50;;;8.63;;
8536;SDS011;4306;50.210;10.628;2024-01-30T10:17:12;14.95;;;8.60;;
8536;SDS011;4306;50.210;10.628;2024-01-30T10:19:39;14.45;;;8.80;;
8536;SDS011;4306;50.210;10.628;2024-01-30T10:22:07;14.33;;;9.20;;
8536;SDS011;4306;50.210;10.628;2024-01-30T10:24:35;11.90;;;8.90;;
8536;SDS011;4306;50.210;10.628;2024-01-30T10:27:03;17.03;;;10.13;;
8536;SDS011;4306;50.210;10.628;2024-01-30T10:29:32;17.67;;;9.17;;
8536;SDS011;4306;50.210;10.628;2024-01-30T10:31:59;14.40;;;9.07;;
8536;SDS011;4306;50.210;10.628;2024-01-30T10:34:28;13.90;;;8.57;;
8536;SDS011;4306;50.210;10.628;2024-01-30T10:36:59;11.88;;;8.13;;
8536;SDS011;4306;50.210;10.628;2024-01-30T10:39:37;12.55;;;8.50;;
8536;SDS011;4306;50.210;10.628;2024-01-30T10:42:05;14.35;;;8.90;;
8536;SDS011;4306;50.210;10.628;2024-01-30T10:44:37;13.15;;;8.63;;
8536;SDS011;4306;50.210;10.628;2024-01-30T10:47:21;13.20;;;8.88;;
8536;SDS011;4306;50.210;10.628;2024-01-30T10:49:55;14.02;;;10.23;;
8536;SDS011;4306;50.210;10.628;2024-01-30T10:52:23;15.60;;;10.70;;
8536;SDS011;4306;50.210;10.628;2024-01-30T10:54:51;12.60;;;8.65;;
8536;SDS011;4306;50.210;10.628;2024-01-30T10:57:20;13.25;;;8.95;;
8536;SDS011;4306;50.210;10.628;2024-01-30T10:59:50;12.18;;;8.15;;
8536;SDS011;4306;50.210;10.628;2024-01-30T11:02:21;12.90;;;8.73;;
8536;SDS011;4306;50.210;10.628;2024-01-30T11:04:49;11.55;;;8.48;;
8536;SDS011;4306;50.210;10.628;2024-01-30T11:07:24;12.52;;;8.18;;
8536;SDS011;4306;50.210;10.628;2024-01-30T11:09:53;12.98;;;7.97;;
8536;SDS011;4306;50.210;10.628;2024-01-30T11:12:27;12.27;;;8.75;;
8536;SDS011;4306;50.210;10.628;2024-01-30T11:15:01;13.32;;;7.82;;
8536;SDS011;4306;50.210;10.628;2024-01-30T11:17:39;12.88;;;8.20;;
8536;SDS011;4306;50.210;10.628;2024-01-30T11:20:12;11.45;;;7.32;;
8536;SDS011;4306;50.210;10.628;2024-01-30T11:22:42;13.87;;;8.20;;
8536;SDS011;4306;50.210;10.628;2024-01-30T11:25:11;12.23;;;7.85;;
8536;SDS011;4306;50.210;10.628;2024-01-30T11:27:40;11.15;;;7.47;;
8536;SDS011;4306;50.210;10.628;2024-01-30T11:30:08;11.15;;;7.20;;
8536;SDS011;4306;50.210;10.628;2024-01-30T11:32:35;11.00;;;7.50;;
8536;SDS011;4306;50.210;10.628;2024-01-30T11:35:03;11.25;;;7.43;;
8536;SDS011;4306;50.210;10.628;2024-01-30T11:37:35;11.82;;;8.00;;
8536;SDS011;4306;50.210;10.628;2024-01-30T11:40:04;12.50;;;7.80;;
8536;SDS011;4306;50.210;10.628;2024-01-30T11:42:33;10.60;;;7.65;;
8536;SDS011;4306;50.210;10.628;2024-01-30T11:45:05;12.27;;;8.07;;
8536;SDS011;4306;50.210;10.628;2024-01-30T11:47:34;13.30;;;7.90;;
8536;SDS011;4306;50.210;10.628;2024-01-30T11:50:02;10.77;;;7.88;;
8536;SDS011;4306;50.210;10.628;2024-01-30T11:52:31;11.35;;;7.50;;
8536;SDS011;4306;50.210;10.628;2024-01-30T11:55:00;11.30;;;7.73;;
8536;SDS011;4306;50.210;10.628;2024-01-30T11:57:27;11.32;;;7.68;;
8536;SDS011;4306;50.210;10.628;2024-01-30T11:59:55;12.20;;;8.18;;
8536;SDS011;4306;50.210;10.628;2024-01-30T12:02:21;10.88;;;7.65;;
8536;SDS011;4306;50.210;10.628;2024-01-30T12:04:49;13.55;;;8.25;;
8536;SDS011;4306;50.210;10.628;2024-01-30T12:07:16;17.73;;;8.30;;
8536;SDS011;4306;50.210;10.628;2024-01-30T12:09:51;12.95;;;8.73;;
8536;SDS011;4306;50.210;10.628;2024-01-30T12:12:20;11.40;;;8.40;;
8536;SDS011;4306;50.210;10.628;2024-01-30T12:14:49;14.77;;;9.48;;
8536;SDS011;4306;50.210;10.628;2024-01-30T12:17:22;14.85;;;9.38;;
8536;SDS011;4306;50.210;10.628;2024-01-30T12:20:02;15.25;;;9.27;;
8536;SDS011;4306;50.210;10.628;2024-01-30T12:22:31;14.38;;;8.45;;
8536;SDS011;4306;50.210;10.628;2024-01-30T12:25:02;12.10;;;8.32;;
8536;SDS011;4306;50.210;10.628;2024-01-30T12:27:32;11.55;;;8.15;;
8536;SDS011;4306;50.210;10.628;2024-01-30T12:30:00;15.53;;;8.23;;
8536;SDS011;4306;50.210;10.628;2024-01-30T12:32:27;11.65;;;8.07;;
8536;SDS011;4306;50.210;10.628;2024-01-30T12:34:55;13.05;;;7.93;;
8536;SDS011;4306;50.210;10.628;2024-01-30T12:37:22;15.35;;;8.25;;
8536;SDS011;4306;50.210;10.628;2024-01-30T12:39:50;13.52;;;8.52;;
8536;SDS011;4306;50.210;10.628;2024-01-30T12:42:19;14.82;;;7.70;;
8536;SDS011;4306;50.210;10.628;2024-01-30T12:44:48;14.90;;;7.82;;
8536;SDS011;4306;50.210;10.628;2024-01-30T12:47:16;15.57;;;8.05;;
8536;SDS011;4306;50.210;10.628;2024-01-30T12:49:43;13.68;;;8.55;;
8536;SDS011;4306;50.210;10.628;2024-01-30T12:52:10;14.75;;;8.20;;
8536;SDS011;4306;50.210;10.628;2024-01-30T12:54:37;11.25;;;8.15;;
8536;SDS011;4306;50.210;10.628;2024-01-30T12:57:04;12.82;;;8.30;;
8536;SDS011;4306;50.210;10.628;2024-01-30T12:59:32;13.88;;;7.88;;
8536;SDS011;4306;50.210;10.628;2024-01-30T13:02:01;10.38;;;7.50;;
8536;SDS011;4306;50.210;10.628;2024-01-30T13:04:28;11.95;;;8.02;;
8536;SDS011;4306;50.210;10.628;2024-01-30T13:06:56;14.10;;;8.02;;
8536;SDS011;4306;50.210;10.628;2024-01-30T13:09:25;11.93;;;8.10;;
8536;SDS011;4306;50.210;10.628;2024-01-30T13:11:52;12.45;;;7.43;;
8536;SDS011;4306;50.210;10.628;2024-01-30T13:14:19;12.48;;;8.57;;
8536;SDS011;4306;50.210;10.628;2024-01-30T13:16:46;10.55;;;7.53;;
8536;SDS011;4306;50.210;10.628;2024-01-30T13:19:15;12.10;;;7.78;;
8536;SDS011;4306;50.210;10.628;2024-01-30T13:21:42;15.73;;;8.07;;
8536;SDS011;4306;50.210;10.628;2024-01-30T13:24:09;14.00;;;7.72;;
8536;SDS011;4306;50.210;10.628;2024-01-30T13:26:36;10.85;;;7.03;;
8536;SDS011;4306;50.210;10.628;2024-01-30T13:29:03;11.60;;;7.40;;
8536;SDS011;4306;50.210;10.628;2024-01-30T13:31:30;12.80;;;8.60;;
8536;SDS011;4306;50.210;10.628;2024-01-30T13:33:57;12.25;;;7.97;;
8536;SDS011;4306;50.210;10.628;2024-01-30T13:36:25;13.07;;;8.57;;
8536;SDS011;4306;50.210;10.628;2024-01-30T13:38:53;12.68;;;8.52;;
8536;SDS011;4306;50.210;10.628;2024-01-30T13:41:20;12.93;;;8.30;;
8536;SDS011;4306;50.210;10.628;2024-01-30T13:43:47;12.27;;;8.52;;
8536;SDS011;4306;50.210;10.628;2024-01-30T13:46:15;17.00;;;8.95;;
8536;SDS011;4306;50.210;10.628;2024-01-30T13:48:42;10.82;;;7.78;;
8536;SDS011;4306;50.210;10.628;2024-01-30T13:51:09;11.40;;;7.97;;
8536;SDS011;4306;50.210;10.628;2024-01-30T13:53:39;13.73;;;8.52;;
8536;SDS011;4306;50.210;10.628;2024-01-30T13:56:06;16.48;;;7.97;;
8536;SDS011;4306;50.210;10.628;2024-01-30T13:58:33;13.18;;;7.93;;
8536;SDS011;4306;50.210;10.628;2024-01-30T14:01:01;12.30;;;8.15;;
8536;SDS011;4306;50.210;10.628;2024-01-30T14:03:28;11.60;;;8.73;;
8536;SDS011;4306;50.210;10.628;2024-01-30T14:05:55;12.45;;;8.15;;
8536;SDS011;4306;50.210;10.628;2024-01-30T14:08:22;11.32;;;8.35;;
8536;SDS011;4306;50.210;10.628;2024-01-30T14:10:54;16.15;;;11.57;;
8536;SDS011;4306;50.210;10.628;2024-01-30T14:13:21;14.85;;;8.60;;
8536;SDS011;4306;50.210;10.628;2024-01-30T14:15:50;12.85;;;7.97;;
8536;SDS011;4306;50.210;10.628;2024-01-30T14:18:17;13.48;;;8.18;;
8536;SDS011;4306;50.210;10.628;2024-01-30T14:20:44;14.35;;;8.40;;
8536;SDS011;4306;50.210;10.628;2024-01-30T14:23:11;11.73;;;8.35;;
8536;SDS011;4306;50.210;10.628;2024-01-30T14:25:38;11.55;;;7.30;;
8536;SDS011;4306;50.210;10.628;2024-01-30T14:28:06;13.20;;;8.50;;
8536;SDS011;4306;50.210;10.628;2024-01-30T14:30:33;14.35;;;8.15;;
8536;SDS011;4306;50.210;10.628;2024-01-30T14:33:01;12.23;;;8.98;;
8536;SDS011;4306;50.210;10.628;2024-01-30T14:35:29;12.85;;;8.00;;
8536;SDS011;4306;50.210;10.628;2024-01-30T14:37:56;15.25;;;8.82;;
8536;SDS011;4306;50.210;10.628;2024-01-30T14:40:23;11.35;;;8.00;;
8536;SDS011;4306;50.210;10.628;2024-01-30T14:42:50;12.07;;;9.18;;
8536;SDS011;4306;50.210;10.628;2024-01-30T14:45:18;12.18;;;8.57;;
8536;SDS011;4306;50.210;10.628;2024-01-30T14:47:47;12.82;;;8.43;;
8536;SDS011;4306;50.210;10.628;2024-01-30T14:50:14;13.88;;;8.43;;
8536;SDS011;4306;50.210;10.628;2024-01-30T14:52:42;14.65;;;8.68;;
8536;SDS011;4306;50.210;10.628;2024-01-30T14:55:09;15.70;;;9.93;;
8536;SDS011;4306;50.210;10.628;2024-01-30T14:57:36;16.85;;;9.38;;